createdAt,value
2019-01-19T00:00:16.115Z,100161.97
2019-01-19T00:02:56.987Z,100158.02
2019-01-19T00:06:11.340Z,100154.28
2019-01-19T00:09:17.692Z,100154.28
2019-01-19T00:12:23.805Z,100152.39
2019-01-19T00:15:18.417Z,100153.33
2019-01-19T00:18:34.695Z,100164.25
2019-01-19T00:21:42.866Z,100153.33
2019-01-19T00:25:00.878Z,100151.17
2019-01-19T00:28:05.896Z,100149.71
2019-01-19T00:31:06.017Z,100152.25
2019-01-19T00:34:00.957Z,100154.64
2019-01-19T00:37:09.715Z,100157.38
2019-01-19T00:40:17.444Z,100159.30
2019-01-19T00:43:15.335Z,100159.20
2019-01-19T00:46:21.667Z,100151.77
2019-01-19T00:49:10.826Z,100152.23
2019-01-19T00:52:23.334Z,100146.72
2019-01-19T00:55:24.482Z,100157.38
2019-01-19T00:58:29.336Z,100154.95
2019-01-19T01:01:53.457Z,100149.90
2019-01-19T01:05:02.240Z,100154.84
2019-01-19T01:08:01.862Z,100150.88
2019-01-19T01:10:46.864Z,100155.52
2019-01-19T01:13:36.666Z,100153.20
2019-01-19T01:16:44.067Z,100148.61
2019-01-19T01:20:01.965Z,100147.28
2019-01-19T01:23:26.809Z,100158.41
2019-01-19T01:26:46.498Z,100154.69
2019-01-19T01:29:56.063Z,100150.23
2019-01-19T01:33:08.142Z,100157.59
2019-01-19T01:36:32.226Z,100131.09
2019-01-19T01:39:41.610Z,100152.02
2019-01-19T01:42:53.301Z,100150.48
2019-01-19T01:46:00.968Z,100150.51
2019-01-19T01:48:56.365Z,100146.75
2019-01-19T01:52:19.011Z,100144.44
2019-01-19T01:55:28.406Z,100142.05
2019-01-19T01:58:43.926Z,100143.30
2019-01-19T02:02:03.783Z,100142.02
2019-01-19T02:05:15.643Z,100139.50
2019-01-19T02:08:02.267Z,100139.97
2019-01-19T02:11:10.822Z,100136.55
2019-01-19T02:14:16.622Z,100135.45
2019-01-19T02:17:28.403Z,100137.99
2019-01-19T02:20:34.966Z,100128.16
2019-01-19T02:23:28.807Z,100127.21
2019-01-19T02:26:55.718Z,100125.52
2019-01-19T02:29:56.534Z,100127.11
2019-01-19T02:32:49.891Z,100123.38
2019-01-19T02:36:25.793Z,100128.64
2019-01-19T02:39:48.059Z,100121.34
2019-01-19T02:43:07.185Z,100111.04
2019-01-19T02:46:03.050Z,100112.36
2019-01-19T02:49:02.120Z,100112.03
2019-01-19T02:52:20.267Z,100101.77
2019-01-19T02:55:27.693Z,100098.81
2019-01-19T02:58:26.352Z,100103.41
2019-01-19T03:01:40.052Z,100094.87
2019-01-19T03:04:21.354Z,100091.78
2019-01-19T03:07:39.736Z,100104.16
2019-01-19T03:10:53.841Z,100093.10
2019-01-19T03:13:58.146Z,100090.22
2019-01-19T03:17:00.359Z,100083.08
2019-01-19T03:19:57.536Z,100085.58
2019-01-19T03:23:13.014Z,100084.89
2019-01-19T03:26:43.359Z,100081.66
2019-01-19T03:29:46.926Z,100073.41
2019-01-19T03:32:53.276Z,100079.25
2019-01-19T03:35:39.678Z,100080.06
2019-01-19T03:38:40.395Z,100076.81
2019-01-19T03:41:40.376Z,100077.64
2019-01-19T03:44:57.891Z,100069.02
2019-01-19T03:48:05.514Z,100069.29
2019-01-19T03:51:07.236Z,100064.97
2019-01-19T03:53:58.286Z,100062.94
2019-01-19T03:57:08.260Z,100059.81
2019-01-19T04:00:31.077Z,100064.23
2019-01-19T04:04:02.388Z,100061.15
2019-01-19T04:07:11.683Z,100058.61
2019-01-19T04:10:21.132Z,100057.67
2019-01-19T04:13:33.176Z,100054.44
2019-01-19T04:16:43.039Z,100051.24
2019-01-19T04:19:54.865Z,100051.47
2019-01-19T04:22:48.098Z,100046.66
2019-01-19T04:25:33.643Z,100046.50
2019-01-19T04:28:06.341Z,100051.42
2019-01-19T04:30:38.575Z,100044.00
2019-01-19T04:33:10.509Z,100045.06
2019-01-19T04:35:45.044Z,100049.45
2019-01-19T04:38:17.145Z,100046.95
2019-01-19T04:40:49.095Z,100033.67
2019-01-19T04:43:21.090Z,100033.67
2019-01-19T04:45:57.141Z,100036.42
2019-01-19T04:48:30.488Z,100035.45
2019-01-19T04:51:02.595Z,100038.19
2019-01-19T04:53:34.826Z,100029.84
2019-01-19T04:56:06.560Z,100033.27
2019-01-19T04:58:38.497Z,100027.41
2019-01-19T05:01:10.492Z,100028.30
2019-01-19T05:03:41.639Z,100023.63
2019-01-19T05:06:20.458Z,100023.72
2019-01-19T05:08:52.562Z,100026.56
2019-01-19T05:11:24.620Z,100009.15
2019-01-19T05:13:58.205Z,100028.27
2019-01-19T05:16:30.438Z,100026.13
2019-01-19T05:19:01.622Z,100017.36
2019-01-19T05:21:32.806Z,100028.45
2019-01-19T05:24:04.960Z,100029.03
2019-01-19T05:26:36.926Z,100027.34
2019-01-19T05:29:08.219Z,100034.98
2019-01-19T05:31:39.356Z,100019.69
2019-01-19T05:34:10.516Z,100028.80
2019-01-19T05:36:42.905Z,100023.64
2019-01-19T05:39:14.949Z,100016.22
2019-01-19T05:41:46.966Z,100022.48
2019-01-19T05:44:18.174Z,100017.66
2019-01-19T05:46:52.247Z,100015.50
2019-01-19T05:49:24.194Z,100014.28
2019-01-19T05:51:56.445Z,100014.19
2019-01-19T05:54:28.515Z,100023.11
2019-01-19T05:57:02.970Z,100016.63
2019-01-19T05:59:35.026Z,100019.64
2019-01-19T06:02:09.141Z,100018.41
2019-01-19T06:04:40.237Z,100024.52
2019-01-19T06:07:14.693Z,100028.03
2019-01-19T06:09:45.937Z,100016.85
2019-01-19T06:12:19.614Z,100019.61
2019-01-19T06:14:51.807Z,100018.52
2019-01-19T06:17:23.861Z,100021.48
2019-01-19T06:19:55.597Z,99999.67
2019-01-19T06:22:26.738Z,100017.54
2019-01-19T06:24:58.941Z,100015.63
2019-01-19T06:27:34.077Z,100014.53
2019-01-19T06:30:09.511Z,100024.58
2019-01-19T06:32:41.981Z,100024.08
2019-01-19T06:35:13.236Z,100027.90
2019-01-19T06:37:48.219Z,100025.14
2019-01-19T06:40:20.325Z,100027.34
2019-01-19T06:42:51.583Z,100031.75
2019-01-19T06:45:25.829Z,100034.13
2019-01-19T06:48:00.187Z,100033.41
2019-01-19T06:50:32.164Z,100029.91
2019-01-19T06:53:03.651Z,100026.80
2019-01-19T06:55:37.126Z,100036.34
2019-01-19T06:58:09.088Z,100029.48
2019-01-19T07:00:41.210Z,100024.20
2019-01-19T07:03:12.338Z,100030.17
2019-01-19T07:05:43.598Z,100029.88
2019-01-19T07:08:15.552Z,100029.59
2019-01-19T07:11:00.879Z,100035.56
2019-01-19T07:13:32.955Z,100029.38
2019-01-19T07:16:08.668Z,100028.91
2019-01-19T07:18:40.920Z,100032.81
2019-01-19T07:21:12.987Z,100034.42
2019-01-19T07:23:46.343Z,100027.86
2019-01-19T07:26:19.507Z,100032.00
2019-01-19T07:28:56.252Z,100034.20
2019-01-19T07:31:28.245Z,100035.38
2019-01-19T07:34:02.760Z,100041.92
2019-01-19T07:36:36.417Z,100039.83
2019-01-19T07:39:09.001Z,100038.73
2019-01-19T07:41:40.991Z,100036.30
2019-01-19T07:44:15.696Z,100040.77
2019-01-19T07:46:47.186Z,100037.84
2019-01-19T07:49:22.167Z,100043.82
2019-01-19T07:51:54.247Z,100043.82
2019-01-19T07:54:26.571Z,100038.85
2019-01-19T07:56:57.722Z,100031.13
2019-01-19T07:59:28.955Z,100037.70
2019-01-19T08:02:02.636Z,100037.98
2019-01-19T08:04:33.619Z,100040.45
2019-01-19T08:07:06.037Z,100045.13
2019-01-19T08:09:37.348Z,100041.77
2019-01-19T08:12:08.473Z,100058.80
2019-01-19T08:14:41.173Z,100052.83
2019-01-19T08:17:12.659Z,100053.41
2019-01-19T08:19:45.313Z,100054.25
2019-01-19T08:22:16.582Z,100052.08
2019-01-19T08:24:48.176Z,100057.25
2019-01-19T08:27:19.639Z,100055.19
2019-01-19T08:29:52.230Z,100053.77
2019-01-19T08:32:27.408Z,100051.97
2019-01-19T08:34:58.639Z,100052.91
2019-01-19T08:37:33.183Z,100052.20
2019-01-19T08:40:05.461Z,100051.95
2019-01-19T08:42:40.998Z,100056.12
2019-01-19T08:45:16.047Z,100059.02
2019-01-19T08:47:48.138Z,100051.48
2019-01-19T08:50:24.094Z,100047.58
2019-01-19T08:52:56.698Z,100052.57
2019-01-19T08:55:31.102Z,100052.57
2019-01-19T08:58:03.475Z,100053.19
2019-01-19T09:00:38.741Z,100054.15
2019-01-19T09:03:12.175Z,100060.24
2019-01-19T09:06:01.020Z,100060.24
2019-01-19T09:08:32.194Z,100051.50
2019-01-19T09:11:03.682Z,100053.16
2019-01-19T09:13:35.271Z,100047.54
2019-01-19T09:16:15.972Z,100051.33
2019-01-19T09:18:51.139Z,100055.06
2019-01-19T09:21:34.233Z,100050.44
2019-01-19T09:24:17.564Z,100052.83
2019-01-19T09:26:59.194Z,100048.64
2019-01-19T09:29:26.279Z,100048.64
2019-01-19T09:32:02.324Z,100053.02
2019-01-19T09:34:36.251Z,100047.86
2019-01-19T09:37:10.221Z,100059.41
2019-01-19T09:39:43.011Z,100059.33
2019-01-19T09:42:14.456Z,100055.73
2019-01-19T09:44:50.232Z,100047.41
2019-01-19T09:47:24.090Z,100057.55
2019-01-19T09:50:02.790Z,100049.08
2019-01-19T09:52:37.680Z,100046.79
2019-01-19T09:55:15.633Z,100043.19
2019-01-19T09:57:50.752Z,100041.66
2019-01-19T10:00:35.484Z,100031.31
2019-01-19T10:03:05.373Z,100027.39
2019-01-19T10:05:43.853Z,100028.87
2019-01-19T10:08:19.173Z,100036.28
2019-01-19T10:10:53.167Z,100033.05
2019-01-19T10:13:24.375Z,100031.09
2019-01-19T10:16:01.197Z,100027.28
2019-01-19T10:18:32.514Z,100032.25
2019-01-19T10:21:08.419Z,100024.68
2019-01-19T10:23:41.869Z,100015.64
2019-01-19T10:26:12.243Z,100018.80
2019-01-19T10:28:45.058Z,100015.83
2019-01-19T10:31:17.467Z,100021.43
2019-01-19T10:33:51.104Z,100014.94
2019-01-19T10:36:22.643Z,100011.30
2019-01-19T10:38:55.260Z,100006.89
2019-01-19T10:41:26.805Z,100002.58
2019-01-19T10:44:05.365Z,100005.03
2019-01-19T10:46:36.511Z,99998.23
2019-01-19T10:49:09.829Z,99997.67
2019-01-19T10:51:41.404Z,99996.16
2019-01-19T10:54:13.093Z,99993.26
2019-01-19T10:56:51.616Z,99994.85
2019-01-19T10:59:26.998Z,99992.33
2019-01-19T11:01:58.731Z,99992.33
2019-01-19T11:04:29.114Z,99986.49
2019-01-19T11:07:03.370Z,99981.45
2019-01-19T11:09:38.029Z,99978.81
2019-01-19T11:12:13.400Z,99975.78
2019-01-19T11:14:48.851Z,99973.62
2019-01-19T11:17:22.770Z,99970.33
2019-01-19T11:19:57.070Z,99966.00
2019-01-19T11:22:28.629Z,99958.48
2019-01-19T11:24:59.933Z,99949.20
2019-01-19T11:27:45.277Z,99955.56
2019-01-19T11:30:27.053Z,99949.61
2019-01-19T11:32:59.141Z,99945.36
2019-01-19T11:35:35.370Z,99937.95
2019-01-19T11:38:20.205Z,99929.44
2019-01-19T11:40:49.211Z,99910.66
2019-01-19T11:43:20.237Z,99915.14
2019-01-19T11:45:50.698Z,99928.31
2019-01-19T11:48:21.174Z,99905.45
2019-01-19T11:50:52.442Z,99909.68
2019-01-19T11:53:24.361Z,99898.03
2019-01-19T11:55:58.246Z,99898.03
2019-01-19T11:58:34.695Z,99894.97
2019-01-19T12:01:08.644Z,99880.05
2019-01-19T12:03:41.197Z,99879.92
2019-01-19T12:06:14.298Z,99886.27
2019-01-19T12:08:48.652Z,99880.83
2019-01-19T12:11:22.067Z,99879.36
2019-01-19T12:13:55.473Z,99872.81
2019-01-19T12:16:27.150Z,99855.10
2019-01-19T12:19:04.471Z,99865.81
2019-01-19T12:21:42.756Z,99859.36
2019-01-19T12:24:13.941Z,99863.33
2019-01-19T12:26:44.393Z,99853.85
2019-01-19T12:29:23.221Z,99837.86
2019-01-19T12:31:56.181Z,99837.09
2019-01-19T12:34:34.896Z,99840.95
2019-01-19T12:37:15.341Z,99827.00
2019-01-19T12:39:49.518Z,99826.30
2019-01-19T12:42:27.353Z,99818.61
2019-01-19T12:44:58.704Z,99825.64
2019-01-19T12:47:46.228Z,99817.71
2019-01-19T12:50:52.561Z,99816.11
2019-01-19T12:53:30.570Z,99815.41
2019-01-19T12:57:08.283Z,99818.17
2019-01-19T13:00:08.021Z,99802.66
2019-01-19T13:02:56.754Z,99805.13
2019-01-19T13:05:55.405Z,99790.88
2019-01-19T13:08:34.562Z,99791.83
2019-01-19T13:12:21.098Z,99780.95
2019-01-19T13:15:27.968Z,99781.94
2019-01-19T13:18:43.504Z,99772.25
2019-01-19T13:22:03.223Z,99766.97
2019-01-19T13:24:59.096Z,99762.03
2019-01-19T13:27:51.281Z,99755.61
2019-01-19T13:31:12.522Z,99753.64
2019-01-19T13:34:32.495Z,99751.42
2019-01-19T13:37:49.277Z,99743.39
2019-01-19T13:40:58.475Z,99744.20
2019-01-19T13:44:21.018Z,99740.64
2019-01-19T13:47:22.272Z,99739.17
2019-01-19T13:50:46.269Z,99733.23
2019-01-19T13:53:50.376Z,99729.98
2019-01-19T13:57:10.047Z,99725.81
2019-01-19T14:00:43.659Z,99722.28
2019-01-19T14:03:40.423Z,99714.48
2019-01-19T14:07:12.703Z,99716.91
2019-01-19T14:10:18.295Z,99714.83
2019-01-19T14:13:44.851Z,99712.80
2019-01-19T14:16:43.624Z,99704.67
2019-01-19T14:19:57.807Z,99713.83
2019-01-19T14:23:09.543Z,99709.45
2019-01-19T14:26:49.077Z,99702.70
2019-01-19T14:29:49.717Z,99700.54
2019-01-19T14:32:50.604Z,99693.66
2019-01-19T14:35:38.943Z,99685.09
2019-01-19T14:38:37.113Z,99692.22
2019-01-19T14:41:48.471Z,99689.73
2019-01-19T14:45:13.926Z,99685.02
2019-01-19T14:48:38.497Z,99688.16
2019-01-19T14:52:02.203Z,99682.22
2019-01-19T14:55:36.373Z,99673.73
2019-01-19T14:58:35.593Z,99667.41
2019-01-19T15:01:52.694Z,99662.00
2019-01-19T15:05:04.447Z,99641.88
2019-01-19T15:07:54.169Z,99657.99
2019-01-19T15:11:14.535Z,99653.70
2019-01-19T15:14:23.191Z,99668.78
2019-01-19T15:17:33.195Z,99657.98
2019-01-19T15:20:28.182Z,99657.98
2019-01-19T15:23:36.000Z,99659.55
2019-01-19T15:27:06.340Z,99657.24
2019-01-19T15:30:00.457Z,99665.40
2019-01-19T15:33:08.362Z,99649.02
2019-01-19T15:36:25.410Z,99645.34
2019-01-19T15:39:28.988Z,99649.56
2019-01-19T15:42:30.253Z,99642.63
2019-01-19T15:45:35.467Z,99637.94
2019-01-19T15:49:09.033Z,99647.56
2019-01-19T15:53:00.359Z,99642.97
2019-01-19T15:56:20.315Z,99642.31
2019-01-19T15:59:30.289Z,99639.20
2019-01-19T16:02:57.003Z,99643.52
2019-01-19T16:06:17.410Z,99641.73
2019-01-19T16:09:27.473Z,99643.92
2019-01-19T16:12:19.952Z,99644.11
2019-01-19T16:15:15.849Z,99648.28
2019-01-19T16:18:13.807Z,99645.94
2019-01-19T16:21:27.288Z,99642.62
2019-01-19T16:24:24.649Z,99643.54
2019-01-19T16:27:27.863Z,99639.73
2019-01-19T16:30:55.107Z,99644.81
2019-01-19T16:33:50.900Z,99644.13
2019-01-19T16:37:06.730Z,99645.04
2019-01-19T16:40:17.124Z,99649.82
2019-01-19T16:43:31.267Z,99650.45
2019-01-19T16:46:44.887Z,99653.13
2019-01-19T16:49:46.035Z,99653.13
2019-01-19T16:52:38.971Z,99659.50
2019-01-19T16:55:55.875Z,99667.46
2019-01-19T16:58:52.588Z,99660.98
2019-01-19T17:02:08.725Z,99654.38
2019-01-19T17:05:22.283Z,99654.38
2019-01-19T17:08:38.176Z,99659.12
2019-01-19T17:11:50.066Z,99654.44
2019-01-19T17:15:13.198Z,99658.87
2019-01-19T17:18:28.585Z,99655.03
2019-01-19T17:21:41.516Z,99654.45
2019-01-19T17:25:05.155Z,99658.03
2019-01-19T17:28:14.358Z,99653.70
2019-01-19T17:31:27.464Z,99652.54
2019-01-19T17:34:52.643Z,99655.14
2019-01-19T17:37:36.755Z,99658.05
2019-01-19T17:40:46.741Z,99659.30
2019-01-19T17:43:42.740Z,99652.98
2019-01-19T17:47:00.706Z,99647.97
2019-01-19T17:50:01.800Z,99652.19
2019-01-19T17:53:03.078Z,99656.03
2019-01-19T17:56:14.507Z,99656.95
2019-01-19T17:59:20.347Z,99651.93
2019-01-19T18:02:35.095Z,99656.41
2019-01-19T18:05:50.140Z,99654.72
2019-01-19T18:08:47.526Z,99652.34
2019-01-19T18:11:56.430Z,99647.28
2019-01-19T18:15:16.748Z,99651.34
2019-01-19T18:18:26.285Z,99638.73
2019-01-19T18:21:27.171Z,99648.60
2019-01-19T18:24:26.073Z,99644.64
2019-01-19T18:27:45.736Z,99641.94
2019-01-19T18:30:40.325Z,99645.53
2019-01-19T18:33:44.519Z,99637.72
2019-01-19T18:36:54.686Z,99639.88
2019-01-19T18:39:57.164Z,99640.62
2019-01-19T18:43:09.182Z,99641.25
2019-01-19T18:46:13.714Z,99642.62
2019-01-19T18:49:21.580Z,99641.13
2019-01-19T18:52:39.231Z,99638.34
2019-01-19T18:55:47.492Z,99643.39
2019-01-19T18:59:06.033Z,99630.95
2019-01-19T19:02:17.001Z,99643.58
2019-01-19T19:05:35.122Z,99638.74
2019-01-19T19:08:31.223Z,99636.47
2019-01-19T19:11:54.787Z,99635.63
2019-01-19T19:14:35.102Z,99622.17
2019-01-19T19:17:57.558Z,99627.58
2019-01-19T19:21:07.691Z,99626.02
2019-01-19T19:24:07.670Z,99625.06
2019-01-19T19:27:02.764Z,99625.36
2019-01-19T19:30:15.101Z,99632.39
2019-01-19T19:33:29.757Z,99622.69
2019-01-19T19:36:49.428Z,99630.48
2019-01-19T19:39:47.221Z,99623.93
2019-01-19T19:43:25.977Z,99626.64
2019-01-19T19:46:34.770Z,99626.55
2019-01-19T19:49:48.401Z,99630.11
2019-01-19T19:52:29.624Z,99626.34
2019-01-19T19:55:12.531Z,99626.34
2019-01-19T19:57:56.713Z,99623.45
2019-01-19T20:01:03.608Z,99614.11
2019-01-19T20:03:51.938Z,99621.63
2019-01-19T20:10:26.051Z,99619.02
2019-01-19T20:13:07.350Z,99615.55
2019-01-19T20:16:21.261Z,99623.55
2019-01-19T20:19:09.292Z,99616.02
2019-01-19T20:22:10.965Z,99607.81
2019-01-19T20:24:59.608Z,99619.78
2019-01-19T20:27:37.231Z,99619.19
2019-01-19T20:30:37.463Z,99624.12
2019-01-19T20:36:38.301Z,99611.91
2019-01-19T20:39:16.197Z,99616.28
2019-01-19T20:41:58.394Z,99618.30
2019-01-19T20:44:32.542Z,99622.75
2019-01-19T20:47:13.944Z,99622.02
2019-01-19T20:50:06.531Z,99613.08
2019-01-19T20:52:48.224Z,99617.26
2019-01-19T20:55:45.929Z,99617.57
2019-01-19T20:58:18.324Z,99615.78
2019-01-19T21:00:56.078Z,99623.42
2019-01-19T21:03:33.035Z,99618.55
2019-01-19T21:06:10.172Z,99620.09
2019-01-19T21:08:46.778Z,99624.71
2019-01-19T21:11:22.378Z,99625.50
2019-01-19T21:13:53.496Z,99621.66
2019-01-19T21:16:28.010Z,99615.59
2019-01-19T21:19:15.828Z,99623.27
2019-01-19T21:21:48.573Z,99627.33
2019-01-19T21:24:28.930Z,99621.54
2019-01-19T21:27:07.703Z,99626.70
2019-01-19T21:29:51.968Z,99626.97
2019-01-19T21:32:26.104Z,99634.15
2019-01-19T21:35:00.244Z,99637.73
2019-01-19T21:37:33.475Z,99630.08
2019-01-19T21:40:09.184Z,99631.28
2019-01-19T21:42:50.164Z,99619.12
2019-01-19T21:45:35.312Z,99621.25
2019-01-19T21:48:13.537Z,99621.25
2019-01-19T21:50:51.627Z,99616.94
2019-01-19T21:53:29.779Z,99618.64
2019-01-19T21:56:03.234Z,99625.91
2019-01-19T21:58:34.446Z,99624.11
2019-01-19T22:01:06.788Z,99625.91
2019-01-19T22:03:45.839Z,99623.13
2019-01-19T22:06:17.057Z,99624.97
2019-01-19T22:08:51.350Z,99624.97
2019-01-19T22:11:27.720Z,99618.16
2019-01-19T22:14:04.140Z,99606.22
2019-01-19T22:16:48.835Z,99620.55
2019-01-19T22:19:24.529Z,99624.06
2019-01-19T22:22:09.345Z,99627.04
2019-01-19T22:24:39.661Z,99626.69
2019-01-19T22:27:18.219Z,99625.84
2019-01-19T22:29:52.100Z,99628.34
2019-01-19T22:32:32.655Z,99622.98
2019-01-19T22:35:16.119Z,99623.48
2019-01-19T22:38:17.369Z,99628.75
2019-01-19T22:40:53.679Z,99619.86
2019-01-19T22:43:34.060Z,99617.98
2019-01-19T22:46:06.132Z,99620.13
2019-01-19T22:48:42.674Z,99618.32
2019-01-19T22:51:14.560Z,99616.17
2019-01-19T22:53:50.284Z,99623.74
2019-01-19T22:56:22.804Z,99622.53
2019-01-19T22:59:01.912Z,99619.66
2019-01-19T23:01:55.205Z,99620.87
2019-01-19T23:04:26.887Z,99619.20
2019-01-19T23:06:59.179Z,99614.78
2019-01-19T23:09:33.922Z,99615.27
2019-01-19T23:12:07.781Z,99613.95
2019-01-19T23:14:47.446Z,99612.16
2019-01-19T23:17:19.412Z,99601.88
2019-01-19T23:19:57.786Z,99613.80
2019-01-19T23:22:39.639Z,99631.28
2019-01-19T23:25:15.113Z,99631.28
2019-01-19T23:27:57.241Z,99604.75
2019-01-19T23:30:32.344Z,99620.77
2019-01-19T23:33:07.172Z,99618.02
2019-01-19T23:35:41.438Z,99613.95
2019-01-19T23:38:26.114Z,99613.83
2019-01-19T23:40:58.032Z,99612.63
2019-01-19T23:43:29.354Z,99610.00
2019-01-19T23:46:08.862Z,99611.31
2019-01-19T23:48:42.955Z,99610.74
2019-01-19T23:51:15.353Z,99612.40
2019-01-19T23:53:50.851Z,99612.53
2019-01-19T23:56:22.846Z,99610.14
2019-01-19T23:58:57.175Z,99602.13
